AirNav   Jet Aviation Boston
 
 1523 users online  

WY60 Heiner Airport
Afton, Wyoming, USA

GOING TO AFTON?


FAA INFORMATION EFFECTIVE 24 MAY 2018

Location

FAA Identifier: WY60
Lat/Long: 42-51-39.7330N / 110-53-52.7290W
42-51.662217N / 110-53.878817W
42.8610369 / -110.8979803
(estimated)
Elevation: 6440 ft. / 1963 m (estimated)
Variation: 15E (1985)
From city: 8 miles NE of AFTON, WY
Time zone: UTC -6 (UTC -7 during Standard Time)
Zip code: 83112

Airport Operations

Airport use: Private use. Permission required prior to landing
Activation date: 12/1982
Control tower: no
ARTCC: SALT LAKE CITY CENTER
FSS: CASPER FLIGHT SERVICE STATION
Attendance: UNATNDD
Wind indicator: yes
Segmented circle: no

Airport Communications

WX AWOS-3P at AFO (9 nm S): 119.025 (307-885-2654)

Nearby radio navigation aids

VOR radial/distance  VOR name  Freq  Var
BPIr280/38.7BIG PINEY VOR/DME116.5016E

Airport Services

Fuel available: 100LL

Runway Information

Runway 4/22

Dimensions: 3500 x 40 ft. / 1067 x 12 m
Surface: turf
RUNWAY 4  RUNWAY 22
Traffic pattern: rightleft

Airport Ownership and Management from official FAA records

Ownership: Privately-owned
Owner: GAYLON G HEINER
BEDFORD, WY 83112
Phone 307-883-2813
Manager: GAYLON G HEINER
BEDFORD, WY 83112
Phone 307-883-2813

Airport Operational Statistics

Aircraft based on the field: 3
Single engine airplanes: 2
Ultralights: 1
    

Additional Remarks

RWY SLOPES UPHILL FROM WEST TO EAST; LNDG DOWNHILL & TKOF UPHILL DISCOURAGED UNLESS WIND DICTATES SUCH ACTION.
9000' MTN - 5000' EAST OF RWY.
7500' MTN SOUTH AND WEST 5000' AWAY, VALLEY CONTINUES WEST IN DIRECT LINE WITH RWY FOR 12000' THEN OPENS INTO LARGE VALLEY.
CROPS ON BOTH SIDE OF RWY - DEFINITE EDGES.

Instrument Procedures

There are no published instrument procedures at WY60.

Some nearby airports with instrument procedures:

KAFO - Afton Municipal Airport (9 nm S)
KBPI - Miley Memorial Field Airport (39 nm SE)
KJAC - Jackson Hole Airport (45 nm N)
KPNA - Ralph Wenz Field Airport (48 nm E)
KDIJ - Driggs-Reed Memorial Airport (54 nm N)
 
Loc | Ops | Rwys | IFR | FBO | Links
Com | Nav | Svcs | Stats | Notes

AirNav Hotels Sweepstakes
 
Area around WY60 (Heiner Airport)
 
Road maps at: MapQuest Bing Google
 
Aerial photo
WARNING: Photo may not be current or correct
Aerial photo of WY60 (Heiner Airport)
Photo taken 25-Jun-2011
looking south.

Do you have a better or more recent aerial photo of Heiner Airport that you would like to share? If so, please send us your photo.

 
Sectional chart

 
Airport distance calculator
Flying to Heiner Airport? Find the distance to fly.

From to WY60

Sunrise and sunset
Times for 24-May-2018
 Local
(UTC-6)
 Zulu
(UTC)
Morning civil twilight05:2011:20
Sunrise05:5411:54
Sunset20:4702:47
Evening civil twilight21:2103:21

Current date and time
Zulu (UTC)  24-May-2018 14:58:08
Local (UTC-6)  24-May-2018 08:58:08
 
METAR
KAFO 
9nm S 
241435Z AUTO 00000KT 10SM SCT085 07/05 A3020 RMK AO2
TAF
KBPI 
39nm SE 
241126Z 2412/2512 VRB05KT P6SM VCFG FEW005 FM241500 VRB05KT P6SM SCT070 FM242000 31011KT P6SM SCT090 SCT120 FM250100 34006KT P6SM SCT100 FM250700 VRB05KT P6SM FEW100
KJAC 
45nm N 
241126Z 2412/2512 VRB04KT P6SM VCFG SCT005 BKN040 FM241500 18006KT P6SM SCT040 BKN080 FM242000 19010KT P6SM VCSH BKN060 FM250100 19007KT P6SM SCT060 BKN100 FM250500 01006KT P6SM SCT100 FM251000 01005KT P6SM VCFG SCT004 AMD LTD TO CLD VIS AND WIND
KPNA 
48nm E 
241126Z 2412/2512 31005KT P6SM FEW070 FM241700 29010KT P6SM SCT070 FM250200 30007KT P6SM FEW090 AMD LTD TO CLD VIS AND WIND
NOTAMs
Click for the latest NOTAMs
NOTAMs are issued by the DoD/FAA and will open in a separate window not controlled by AirNav.

 

 
 

Would you like to see your business listed on this page?

 If your business provides an interesting product or service to pilots, flight crews, aircraft, or users of the Heiner Airport, you should consider listing it here.  To start the listing process, click on the button below
 
Add a business
 

Other Pages about Heiner Airport

Update a link
 
Copyright © AirNav, LLC. All rights reserved. Privacy Policy  Contact